sensor_id;sensor_type;location;lat;lon;timestamp;temperature;humidity
63094;DHT22;49183;51.380;0.098;2022-09-01T00:02:47;13.60;86.40
63094;DHT22;49183;51.380;0.098;2022-09-01T00:05:48;13.60;86.50
63094;DHT22;49183;51.380;0.098;2022-09-01T00:08:53;13.60;86.50
63094;DHT22;49183;51.380;0.098;2022-09-01T00:11:55;13.70;86.40
63094;DHT22;49183;51.380;0.098;2022-09-01T00:14:56;13.60;86.20
63094;DHT22;49183;51.380;0.098;2022-09-01T00:17:58;13.60;86.50
63094;DHT22;49183;51.380;0.098;2022-09-01T00:20:59;13.70;86.50
63094;DHT22;49183;51.380;0.098;2022-09-01T00:24:00;13.70;86.30
63094;DHT22;49183;51.380;0.098;2022-09-01T00:27:02;13.80;86.30
63094;DHT22;49183;51.380;0.098;2022-09-01T00:30:05;13.80;86.20
63094;DHT22;49183;51.380;0.098;2022-09-01T00:33:07;13.80;86.10
63094;DHT22;49183;51.380;0.098;2022-09-01T00:36:08;13.70;86.10
63094;DHT22;49183;51.380;0.098;2022-09-01T00:39:09;13.70;86.00
63094;DHT22;49183;51.380;0.098;2022-09-01T00:42:10;13.70;86.10
63094;DHT22;49183;51.380;0.098;2022-09-01T00:45:11;13.70;86.00
63094;DHT22;49183;51.380;0.098;2022-09-01T00:48:15;13.70;85.90
63094;DHT22;49183;51.380;0.098;2022-09-01T00:51:16;13.60;85.90
63094;DHT22;49183;51.380;0.098;2022-09-01T00:54:20;13.60;85.90
63094;DHT22;49183;51.380;0.098;2022-09-01T00:57:22;13.50;85.90
63094;DHT22;49183;51.380;0.098;2022-09-01T01:00:26;13.40;85.90
63094;DHT22;49183;51.380;0.098;2022-09-01T01:03:35;13.30;86.50
63094;DHT22;49183;51.380;0.098;2022-09-01T01:06:38;13.30;86.60
63094;DHT22;49183;51.380;0.098;2022-09-01T01:09:43;13.30;86.50
63094;DHT22;49183;51.380;0.098;2022-09-01T01:12:45;13.20;86.60
63094;DHT22;49183;51.380;0.098;2022-09-01T01:15:47;13.20;86.70
63094;DHT22;49183;51.380;0.098;2022-09-01T01:18:48;13.10;86.90
63094;DHT22;49183;51.380;0.098;2022-09-01T01:21:49;13.10;86.80
63094;DHT22;49183;51.380;0.098;2022-09-01T01:25:08;13.10;86.90
63094;DHT22;49183;51.380;0.098;2022-09-01T01:28:28;13.00;86.90
63094;DHT22;49183;51.380;0.098;2022-09-01T01:31:29;13.00;87.00
63094;DHT22;49183;51.380;0.098;2022-09-01T01:34:31;13.00;87.20
63094;DHT22;49183;51.380;0.098;2022-09-01T01:37:38;13.00;87.20
63094;DHT22;49183;51.380;0.098;2022-09-01T01:40:42;13.00;87.10
63094;DHT22;49183;51.380;0.098;2022-09-01T01:43:43;13.00;87.00
63094;DHT22;49183;51.380;0.098;2022-09-01T01:46:48;12.90;87.00
63094;DHT22;49183;51.380;0.098;2022-09-01T01:49:50;12.90;87.10
63094;DHT22;49183;51.380;0.098;2022-09-01T01:52:52;12.80;87.30
63094;DHT22;49183;51.380;0.098;2022-09-01T01:55:59;12.80;87.20
63094;DHT22;49183;51.380;0.098;2022-09-01T01:59:02;12.80;87.30
63094;DHT22;49183;51.380;0.098;2022-09-01T02:02:04;12.80;87.30
63094;DHT22;49183;51.380;0.098;2022-09-01T02:05:07;12.80;87.40
63094;DHT22;49183;51.380;0.098;2022-09-01T02:08:15;12.70;87.40
63094;DHT22;49183;51.380;0.098;2022-09-01T02:11:19;12.70;87.30
63094;DHT22;49183;51.380;0.098;2022-09-01T02:14:21;12.70;87.40
63094;DHT22;49183;51.380;0.098;2022-09-01T02:17:23;12.60;87.50
63094;DHT22;49183;51.380;0.098;2022-09-01T02:20:24;12.70;87.80
63094;DHT22;49183;51.380;0.098;2022-09-01T02:23:26;12.60;87.70
63094;DHT22;49183;51.380;0.098;2022-09-01T02:26:39;12.70;87.80
63094;DHT22;49183;51.380;0.098;2022-09-01T02:29:42;12.60;87.80
63094;DHT22;49183;51.380;0.098;2022-09-01T02:32:44;12.60;87.90
63094;DHT22;49183;51.380;0.098;2022-09-01T02:35:50;12.60;87.90
63094;DHT22;49183;51.380;0.098;2022-09-01T02:38:52;12.60;87.90
63094;DHT22;49183;51.380;0.098;2022-09-01T02:41:55;12.70;88.10
63094;DHT22;49183;51.380;0.098;2022-09-01T02:44:56;12.70;88.00
63094;DHT22;49183;51.380;0.098;2022-09-01T02:47:57;12.60;87.90
63094;DHT22;49183;51.380;0.098;2022-09-01T02:51:10;12.60;88.10
63094;DHT22;49183;51.380;0.098;2022-09-01T02:54:12;12.60;88.30
63094;DHT22;49183;51.380;0.098;2022-09-01T02:57:12;12.70;88.40
63094;DHT22;49183;51.380;0.098;2022-09-01T03:00:15;12.60;88.30
63094;DHT22;49183;51.380;0.098;2022-09-01T03:03:23;12.70;88.40
63094;DHT22;49183;51.380;0.098;2022-09-01T03:06:25;12.60;88.40
63094;DHT22;49183;51.380;0.098;2022-09-01T03:09:27;12.60;88.40
63094;DHT22;49183;51.380;0.098;2022-09-01T03:12:28;12.70;88.60
63094;DHT22;49183;51.380;0.098;2022-09-01T03:15:29;12.70;88.60
63094;DHT22;49183;51.380;0.098;2022-09-01T03:18:30;12.80;88.60
63094;DHT22;49183;51.380;0.098;2022-09-01T03:21:31;12.80;88.70
63094;DHT22;49183;51.380;0.098;2022-09-01T03:24:36;12.80;88.70
63094;DHT22;49183;51.380;0.098;2022-09-01T03:27:37;12.80;89.30
63094;DHT22;49183;51.380;0.098;2022-09-01T03:30:43;12.90;89.40
63094;DHT22;49183;51.380;0.098;2022-09-01T03:33:44;13.00;89.50
63094;DHT22;49183;51.380;0.098;2022-09-01T03:36:49;13.00;89.20
63094;DHT22;49183;51.380;0.098;2022-09-01T03:39:51;13.00;89.20
63094;DHT22;49183;51.380;0.098;2022-09-01T03:42:53;13.00;89.30
63094;DHT22;49183;51.380;0.098;2022-09-01T03:45:56;13.10;89.30
63094;DHT22;49183;51.380;0.098;2022-09-01T03:48:58;13.10;89.20
63094;DHT22;49183;51.380;0.098;2022-09-01T03:52:01;13.10;89.10
63094;DHT22;49183;51.380;0.098;2022-09-01T03:55:02;13.10;89.10
63094;DHT22;49183;51.380;0.098;2022-09-01T03:58:06;13.10;89.00
63094;DHT22;49183;51.380;0.098;2022-09-01T04:01:14;13.00;89.00
63094;DHT22;49183;51.380;0.098;2022-09-01T04:04:15;13.00;89.00
63094;DHT22;49183;51.380;0.098;2022-09-01T04:07:16;12.90;89.00
63094;DHT22;49183;51.380;0.098;2022-09-01T04:10:17;12.90;89.00
63094;DHT22;49183;51.380;0.098;2022-09-01T04:13:22;12.90;89.10
63094;DHT22;49183;51.380;0.098;2022-09-01T04:16:30;12.90;89.20
63094;DHT22;49183;51.380;0.098;2022-09-01T04:19:50;12.90;89.10
63094;DHT22;49183;51.380;0.098;2022-09-01T04:22:51;13.00;89.20
63094;DHT22;49183;51.380;0.098;2022-09-01T04:25:58;13.10;89.30
63094;DHT22;49183;51.380;0.098;2022-09-01T04:29:02;13.20;89.00
63094;DHT22;49183;51.380;0.098;2022-09-01T04:32:07;13.30;88.90
63094;DHT22;49183;51.380;0.098;2022-09-01T04:35:11;13.30;89.00
63094;DHT22;49183;51.380;0.098;2022-09-01T04:38:14;13.50;88.90
63094;DHT22;49183;51.380;0.098;2022-09-01T04:41:15;13.60;88.70
63094;DHT22;49183;51.380;0.098;2022-09-01T04:44:18;13.70;88.50
63094;DHT22;49183;51.380;0.098;2022-09-01T04:47:19;13.80;88.20
63094;DHT22;49183;51.380;0.098;2022-09-01T04:50:27;13.90;88.00
63094;DHT22;49183;51.380;0.098;2022-09-01T04:53:33;13.90;87.70
63094;DHT22;49183;51.380;0.098;2022-09-01T04:56:34;14.00;87.60
63094;DHT22;49183;51.380;0.098;2022-09-01T04:59:36;13.90;87.40
63094;DHT22;49183;51.380;0.098;2022-09-01T05:02:37;13.90;87.40
63094;DHT22;49183;51.380;0.098;2022-09-01T05:05:42;13.90;87.40
63094;DHT22;49183;51.380;0.098;2022-09-01T05:08:43;13.80;87.30
63094;DHT22;49183;51.380;0.098;2022-09-01T05:12:11;13.80;87.40
63094;DHT22;49183;51.380;0.098;2022-09-01T05:15:15;13.70;87.60
63094;DHT22;49183;51.380;0.098;2022-09-01T05:18:18;13.60;87.70
63094;DHT22;49183;51.380;0.098;2022-09-01T05:21:22;13.60;87.70
63094;DHT22;49183;51.380;0.098;2022-09-01T05:24:24;13.50;87.60
63094;DHT22;49183;51.380;0.098;2022-09-01T05:27:28;13.50;87.70
63094;DHT22;49183;51.380;0.098;2022-09-01T05:30:30;13.40;87.90
63094;DHT22;49183;51.380;0.098;2022-09-01T05:33:33;13.40;88.20
63094;DHT22;49183;51.380;0.098;2022-09-01T05:36:44;13.30;88.20
63094;DHT22;49183;51.380;0.098;2022-09-01T05:39:45;13.30;88.20
63094;DHT22;49183;51.380;0.098;2022-09-01T05:42:46;13.30;88.40
63094;DHT22;49183;51.380;0.098;2022-09-01T05:45:49;13.30;88.40
63094;DHT22;49183;51.380;0.098;2022-09-01T05:48:54;13.30;88.20
63094;DHT22;49183;51.380;0.098;2022-09-01T05:51:57;13.50;88.30
63094;DHT22;49183;51.380;0.098;2022-09-01T05:54:58;13.60;88.10
63094;DHT22;49183;51.380;0.098;2022-09-01T05:58:02;13.60;87.70
63094;DHT22;49183;51.380;0.098;2022-09-01T06:01:06;13.70;87.70
63094;DHT22;49183;51.380;0.098;2022-09-01T06:04:08;13.80;87.70
63094;DHT22;49183;51.380;0.098;2022-09-01T06:07:16;14.10;87.40
63094;DHT22;49183;51.380;0.098;2022-09-01T06:10:17;14.30;86.90
63094;DHT22;49183;51.380;0.098;2022-09-01T06:13:18;14.40;86.30
63094;DHT22;49183;51.380;0.098;2022-09-01T06:16:21;14.50;85.80
63094;DHT22;49183;51.380;0.098;2022-09-01T06:19:24;14.70;85.60
63094;DHT22;49183;51.380;0.098;2022-09-01T06:22:27;14.80;85.30
63094;DHT22;49183;51.380;0.098;2022-09-01T06:25:30;14.90;84.80
63094;DHT22;49183;51.380;0.098;2022-09-01T06:28:33;15.10;83.90
63094;DHT22;49183;51.380;0.098;2022-09-01T06:31:35;15.20;83.40
63094;DHT22;49183;51.380;0.098;2022-09-01T06:34:41;15.30;83.20
63094;DHT22;49183;51.380;0.098;2022-09-01T06:37:44;15.50;82.60
63094;DHT22;49183;51.380;0.098;2022-09-01T06:41:02;15.60;81.80
63094;DHT22;49183;51.380;0.098;2022-09-01T06:44:06;15.80;81.40
63094;DHT22;49183;51.380;0.098;2022-09-01T06:47:14;15.90;80.80
63094;DHT22;49183;51.380;0.098;2022-09-01T06:50:17;16.00;80.40
63094;DHT22;49183;51.380;0.098;2022-09-01T06:53:39;16.10;79.70
63094;DHT22;49183;51.380;0.098;2022-09-01T06:56:44;16.20;79.60
63094;DHT22;49183;51.380;0.098;2022-09-01T06:59:46;16.20;78.60
63094;DHT22;49183;51.380;0.098;2022-09-01T07:02:52;16.20;78.80
63094;DHT22;49183;51.380;0.098;2022-09-01T07:06:08;16.30;78.60
63094;DHT22;49183;51.380;0.098;2022-09-01T07:09:52;16.40;78.00
63094;DHT22;49183;51.380;0.098;2022-09-01T07:13:21;16.50;77.80
63094;DHT22;49183;51.380;0.098;2022-09-01T07:16:26;16.70;77.30
63094;DHT22;49183;51.380;0.098;2022-09-01T07:19:39;16.70;76.80
63094;DHT22;49183;51.380;0.098;2022-09-01T07:22:41;16.80;76.40
63094;DHT22;49183;51.380;0.098;2022-09-01T07:25:52;16.80;75.80
63094;DHT22;49183;51.380;0.098;2022-09-01T07:28:54;16.80;75.80
63094;DHT22;49183;51.380;0.098;2022-09-01T07:31:59;16.80;75.50
63094;DHT22;49183;51.380;0.098;2022-09-01T07:35:21;16.80;75.40
63094;DHT22;49183;51.380;0.098;2022-09-01T07:38:25;16.80;75.40
63094;DHT22;49183;51.380;0.098;2022-09-01T07:41:47;16.80;75.30
63094;DHT22;49183;51.380;0.098;2022-09-01T07:45:43;16.70;75.40
63094;DHT22;49183;51.380;0.098;2022-09-01T07:49:00;16.70;75.70
63094;DHT22;49183;51.380;0.098;2022-09-01T07:52:21;16.80;75.30
63094;DHT22;49183;51.380;0.098;2022-09-01T07:55:24;17.00;74.30
63094;DHT22;49183;51.380;0.098;2022-09-01T07:58:26;17.00;74.20
63094;DHT22;49183;51.380;0.098;2022-09-01T08:01:28;17.10;73.40
63094;DHT22;49183;51.380;0.098;2022-09-01T08:04:29;17.10;73.50
63094;DHT22;49183;51.380;0.098;2022-09-01T08:07:32;17.30;72.50
63094;DHT22;49183;51.380;0.098;2022-09-01T08:10:44;17.30;73.00
63094;DHT22;49183;51.380;0.098;2022-09-01T08:13:54;17.50;72.30
63094;DHT22;49183;51.380;0.098;2022-09-01T08:16:51;17.60;71.20
63094;DHT22;49183;51.380;0.098;2022-09-01T08:20:16;17.60;70.80
63094;DHT22;49183;51.380;0.098;2022-09-01T08:23:34;17.80;71.00
63094;DHT22;49183;51.380;0.098;2022-09-01T08:26:35;17.90;70.80
63094;DHT22;49183;51.380;0.098;2022-09-01T08:29:36;18.00;70.00
63094;DHT22;49183;51.380;0.098;2022-09-01T08:32:37;17.90;69.70
63094;DHT22;49183;51.380;0.098;2022-09-01T08:35:46;17.90;69.50
63094;DHT22;49183;51.380;0.098;2022-09-01T08:38:50;17.90;69.80
63094;DHT22;49183;51.380;0.098;2022-09-01T08:42:05;17.90;68.90
63094;DHT22;49183;51.380;0.098;2022-09-01T08:48:40;18.10;68.90
63094;DHT22;49183;51.380;0.098;2022-09-01T08:52:54;18.00;68.80
63094;DHT22;49183;51.380;0.098;2022-09-01T08:55:59;18.00;69.40
63094;DHT22;49183;51.380;0.098;2022-09-01T08:59:00;18.20;69.70
63094;DHT22;49183;51.380;0.098;2022-09-01T09:02:44;18.20;67.00
63094;DHT22;49183;51.380;0.098;2022-09-01T09:09:40;18.20;67.70
63094;DHT22;49183;51.380;0.098;2022-09-01T09:13:30;18.30;66.90
63094;DHT22;49183;51.380;0.098;2022-09-01T09:16:42;18.50;65.30
63094;DHT22;49183;51.380;0.098;2022-09-01T09:19:46;18.60;65.10
63094;DHT22;49183;51.380;0.098;2022-09-01T09:22:47;18.80;63.40
63094;DHT22;49183;51.380;0.098;2022-09-01T09:25:50;18.80;63.10
63094;DHT22;49183;51.380;0.098;2022-09-01T09:28:54;19.00;62.30
63094;DHT22;49183;51.380;0.098;2022-09-01T09:32:07;19.30;61.50
63094;DHT22;49183;51.380;0.098;2022-09-01T09:35:40;19.40;59.70
63094;DHT22;49183;51.380;0.098;2022-09-01T09:38:42;19.60;59.00
63094;DHT22;49183;51.380;0.098;2022-09-01T09:42:01;19.60;60.10
63094;DHT22;49183;51.380;0.098;2022-09-01T09:48:30;19.80;58.20
63094;DHT22;49183;51.380;0.098;2022-09-01T09:51:31;19.90;58.20
63094;DHT22;49183;51.380;0.098;2022-09-01T09:54:35;20.00;57.90
63094;DHT22;49183;51.380;0.098;2022-09-01T09:57:39;20.10;57.50
63094;DHT22;49183;51.380;0.098;2022-09-01T10:01:42;20.10;58.10
63094;DHT22;49183;51.380;0.098;2022-09-01T10:04:52;19.90;57.30
63094;DHT22;49183;51.380;0.098;2022-09-01T10:07:55;19.60;59.50
63094;DHT22;49183;51.380;0.098;2022-09-01T10:10:56;19.70;57.70
63094;DHT22;49183;51.380;0.098;2022-09-01T10:13:57;19.80;57.70
63094;DHT22;49183;51.380;0.098;2022-09-01T10:17:13;19.80;57.20
63094;DHT22;49183;51.380;0.098;2022-09-01T10:20:22;19.80;56.90
63094;DHT22;49183;51.380;0.098;2022-09-01T10:23:23;19.80;56.30
63094;DHT22;49183;51.380;0.098;2022-09-01T10:26:34;19.90;55.60
63094;DHT22;49183;51.380;0.098;2022-09-01T10:29:43;19.90;55.10
63094;DHT22;49183;51.380;0.098;2022-09-01T10:33:06;20.00;55.20
63094;DHT22;49183;51.380;0.098;2022-09-01T10:36:09;20.20;55.50
63094;DHT22;49183;51.380;0.098;2022-09-01T10:39:15;20.30;54.00
63094;DHT22;49183;51.380;0.098;2022-09-01T10:42:20;20.40;52.90
63094;DHT22;49183;51.380;0.098;2022-09-01T10:45:35;20.40;52.80
63094;DHT22;49183;51.380;0.098;2022-09-01T10:48:46;20.40;52.70
63094;DHT22;49183;51.380;0.098;2022-09-01T10:51:50;20.50;52.20
63094;DHT22;49183;51.380;0.098;2022-09-01T10:55:03;20.40;51.70
63094;DHT22;49183;51.380;0.098;2022-09-01T10:58:38;20.40;52.80
63094;DHT22;49183;51.380;0.098;2022-09-01T11:02:14;20.50;53.10
63094;DHT22;49183;51.380;0.098;2022-09-01T11:05:22;20.70;52.60
63094;DHT22;49183;51.380;0.098;2022-09-01T11:11:43;21.10;52.00
63094;DHT22;49183;51.380;0.098;2022-09-01T11:14:57;21.30;51.50
63094;DHT22;49183;51.380;0.098;2022-09-01T11:17:58;21.40;49.70
63094;DHT22;49183;51.380;0.098;2022-09-01T11:21:18;21.40;50.60
63094;DHT22;49183;51.380;0.098;2022-09-01T11:28:00;21.50;49.80
63094;DHT22;49183;51.380;0.098;2022-09-01T11:37:20;21.70;49.50
63094;DHT22;49183;51.380;0.098;2022-09-01T11:40:26;21.80;48.10
63094;DHT22;49183;51.380;0.098;2022-09-01T11:43:29;21.70;47.80
63094;DHT22;49183;51.380;0.098;2022-09-01T11:46:34;21.60;48.90
63094;DHT22;49183;51.380;0.098;2022-09-01T11:49:44;21.70;48.20
63094;DHT22;49183;51.380;0.098;2022-09-01T11:52:56;21.50;48.90
63094;DHT22;49183;51.380;0.098;2022-09-01T11:56:13;21.50;49.40
63094;DHT22;49183;51.380;0.098;2022-09-01T11:59:33;21.60;49.40
63094;DHT22;49183;51.380;0.098;2022-09-01T12:02:45;21.70;49.00
63094;DHT22;49183;51.380;0.098;2022-09-01T12:05:52;21.80;49.10
63094;DHT22;49183;51.380;0.098;2022-09-01T12:08:56;21.90;47.80
63094;DHT22;49183;51.380;0.098;2022-09-01T12:11:58;21.90;47.90
63094;DHT22;49183;51.380;0.098;2022-09-01T12:18:23;22.30;48.60
63094;DHT22;49183;51.380;0.098;2022-09-01T12:21:30;22.40;47.70
63094;DHT22;49183;51.380;0.098;2022-09-01T12:24:44;22.30;47.50
63094;DHT22;49183;51.380;0.098;2022-09-01T12:27:45;22.40;46.60
63094;DHT22;49183;51.380;0.098;2022-09-01T12:30:46;22.50;46.30
63094;DHT22;49183;51.380;0.098;2022-09-01T12:33:49;22.50;46.50
63094;DHT22;49183;51.380;0.098;2022-09-01T12:40:31;22.70;47.10
63094;DHT22;49183;51.380;0.098;2022-09-01T12:43:38;22.60;47.00
63094;DHT22;49183;51.380;0.098;2022-09-01T12:46:44;22.60;46.40
63094;DHT22;49183;51.380;0.098;2022-09-01T12:49:46;22.80;46.70
63094;DHT22;49183;51.380;0.098;2022-09-01T12:52:57;22.90;45.50
63094;DHT22;49183;51.380;0.098;2022-09-01T12:56:04;22.90;44.50
63094;DHT22;49183;51.380;0.098;2022-09-01T12:59:11;23.00;44.20
63094;DHT22;49183;51.380;0.098;2022-09-01T13:02:33;23.00;44.10
63094;DHT22;49183;51.380;0.098;2022-09-01T13:05:36;23.00;44.70
63094;DHT22;49183;51.380;0.098;2022-09-01T13:08:39;23.00;45.30
63094;DHT22;49183;51.380;0.098;2022-09-01T13:11:43;23.00;44.70
63094;DHT22;49183;51.380;0.098;2022-09-01T13:14:55;23.00;45.00
63094;DHT22;49183;51.380;0.098;2022-09-01T13:17:57;22.90;44.00
63094;DHT22;49183;51.380;0.098;2022-09-01T13:20:59;22.80;44.50
63094;DHT22;49183;51.380;0.098;2022-09-01T13:24:02;22.90;45.10
63094;DHT22;49183;51.380;0.098;2022-09-01T13:27:03;23.00;44.20
63094;DHT22;49183;51.380;0.098;2022-09-01T13:30:07;22.80;44.80
63094;DHT22;49183;51.380;0.098;2022-09-01T13:33:47;22.70;45.50
63094;DHT22;49183;51.380;0.098;2022-09-01T13:37:33;22.80;45.70
63094;DHT22;49183;51.380;0.098;2022-09-01T13:40:49;22.90;46.00
63094;DHT22;49183;51.380;0.098;2022-09-01T13:44:03;23.10;45.40
63094;DHT22;49183;51.380;0.098;2022-09-01T13:47:13;23.10;44.70
63094;DHT22;49183;51.380;0.098;2022-09-01T13:50:21;23.10;45.30
63094;DHT22;49183;51.380;0.098;2022-09-01T13:53:42;22.80;45.50
63094;DHT22;49183;51.380;0.098;2022-09-01T13:56:43;22.50;46.30
63094;DHT22;49183;51.380;0.098;2022-09-01T13:59:47;22.70;46.10
63094;DHT22;49183;51.380;0.098;2022-09-01T14:02:53;22.90;45.10
63094;DHT22;49183;51.380;0.098;2022-09-01T14:05:52;23.10;45.10
63094;DHT22;49183;51.380;0.098;2022-09-01T14:08:59;23.30;44.50
63094;DHT22;49183;51.380;0.098;2022-09-01T14:12:25;23.20;43.70
63094;DHT22;49183;51.380;0.098;2022-09-01T14:15:29;23.10;44.10
63094;DHT22;49183;51.380;0.098;2022-09-01T14:18:34;23.20;44.40
63094;DHT22;49183;51.380;0.098;2022-09-01T14:21:35;23.30;44.40
63094;DHT22;49183;51.380;0.098;2022-09-01T14:24:59;23.40;43.00
63094;DHT22;49183;51.380;0.098;2022-09-01T14:28:15;23.40;43.40
63094;DHT22;49183;51.380;0.098;2022-09-01T14:31:23;23.50;42.90
63094;DHT22;49183;51.380;0.098;2022-09-01T14:34:26;23.40;42.00
63094;DHT22;49183;51.380;0.098;2022-09-01T14:38:02;23.40;42.10
63094;DHT22;49183;51.380;0.098;2022-09-01T14:41:47;23.50;42.50
63094;DHT22;49183;51.380;0.098;2022-09-01T14:45:04;23.50;43.00
63094;DHT22;49183;51.380;0.098;2022-09-01T14:48:16;23.40;42.40
63094;DHT22;49183;51.380;0.098;2022-09-01T14:51:27;23.50;42.00
63094;DHT22;49183;51.380;0.098;2022-09-01T14:54:54;23.60;42.90
63094;DHT22;49183;51.380;0.098;2022-09-01T14:58:17;23.50;43.60
63094;DHT22;49183;51.380;0.098;2022-09-01T15:01:28;23.50;42.60
63094;DHT22;49183;51.380;0.098;2022-09-01T15:04:32;23.40;43.40
63094;DHT22;49183;51.380;0.098;2022-09-01T15:07:40;23.20;42.70
63094;DHT22;49183;51.380;0.098;2022-09-01T15:10:49;22.90;43.90
63094;DHT22;49183;51.380;0.098;2022-09-01T15:13:57;22.90;44.70
63094;DHT22;49183;51.380;0.098;2022-09-01T15:17:02;22.90;44.50
63094;DHT22;49183;51.380;0.098;2022-09-01T15:20:07;22.90;44.00
63094;DHT22;49183;51.380;0.098;2022-09-01T15:23:31;22.90;43.50
63094;DHT22;49183;51.380;0.098;2022-09-01T15:26:37;23.00;42.90
63094;DHT22;49183;51.380;0.098;2022-09-01T15:29:43;23.20;42.70
63094;DHT22;49183;51.380;0.098;2022-09-01T15:32:53;23.40;42.80
63094;DHT22;49183;51.380;0.098;2022-09-01T15:36:03;23.30;43.40
63094;DHT22;49183;51.380;0.098;2022-09-01T15:39:08;23.30;43.40
63094;DHT22;49183;51.380;0.098;2022-09-01T15:42:34;23.30;43.50
63094;DHT22;49183;51.380;0.098;2022-09-01T15:45:35;23.10;43.70
63094;DHT22;49183;51.380;0.098;2022-09-01T15:48:47;23.00;44.10
63094;DHT22;49183;51.380;0.098;2022-09-01T15:52:19;23.00;44.00
63094;DHT22;49183;51.380;0.098;2022-09-01T15:55:44;23.10;44.00
63094;DHT22;49183;51.380;0.098;2022-09-01T15:58:49;23.20;44.00
63094;DHT22;49183;51.380;0.098;2022-09-01T16:01:52;23.10;43.70
63094;DHT22;49183;51.380;0.098;2022-09-01T16:04:53;23.10;43.50
63094;DHT22;49183;51.380;0.098;2022-09-01T16:07:54;23.30;43.40
63094;DHT22;49183;51.380;0.098;2022-09-01T16:11:59;23.50;44.00
63094;DHT22;49183;51.380;0.098;2022-09-01T16:15:14;23.70;43.60
63094;DHT22;49183;51.380;0.098;2022-09-01T16:18:30;23.70;43.20
63094;DHT22;49183;51.380;0.098;2022-09-01T16:25:16;23.40;44.50
63094;DHT22;49183;51.380;0.098;2022-09-01T16:28:33;23.20;45.60
63094;DHT22;49183;51.380;0.098;2022-09-01T16:31:34;22.80;46.00
63094;DHT22;49183;51.380;0.098;2022-09-01T16:35:11;22.50;46.80
63094;DHT22;49183;51.380;0.098;2022-09-01T16:38:49;22.20;47.50
63094;DHT22;49183;51.380;0.098;2022-09-01T16:49:33;21.60;50.30
63094;DHT22;49183;51.380;0.098;2022-09-01T16:53:02;21.80;50.40
63094;DHT22;49183;51.380;0.098;2022-09-01T17:03:17;21.60;50.10
63094;DHT22;49183;51.380;0.098;2022-09-01T17:07:15;21.40;51.30
63094;DHT22;49183;51.380;0.098;2022-09-01T17:10:21;21.30;52.10
63094;DHT22;49183;51.380;0.098;2022-09-01T17:13:35;21.40;52.70
63094;DHT22;49183;51.380;0.098;2022-09-01T17:16:41;21.50;52.60
63094;DHT22;49183;51.380;0.098;2022-09-01T17:19:43;21.60;52.60
63094;DHT22;49183;51.380;0.098;2022-09-01T17:22:51;21.70;52.50
63094;DHT22;49183;51.380;0.098;2022-09-01T17:26:06;21.80;52.30
63094;DHT22;49183;51.380;0.098;2022-09-01T17:29:28;21.90;51.20
63094;DHT22;49183;51.380;0.098;2022-09-01T17:36:19;21.90;51.00
63094;DHT22;49183;51.380;0.098;2022-09-01T17:42:59;21.80;52.00
63094;DHT22;49183;51.380;0.098;2022-09-01T17:56:18;21.40;53.40
63094;DHT22;49183;51.380;0.098;2022-09-01T18:03:27;21.40;52.50
63094;DHT22;49183;51.380;0.098;2022-09-01T18:06:47;21.30;52.20
63094;DHT22;49183;51.380;0.098;2022-09-01T18:09:55;21.30;52.10
63094;DHT22;49183;51.380;0.098;2022-09-01T18:13:03;21.00;52.40
63094;DHT22;49183;51.380;0.098;2022-09-01T18:16:29;20.80;53.00
63094;DHT22;49183;51.380;0.098;2022-09-01T18:19:39;20.70;52.90
63094;DHT22;49183;51.380;0.098;2022-09-01T18:22:46;20.70;53.00
63094;DHT22;49183;51.380;0.098;2022-09-01T18:25:58;20.50;53.30
63094;DHT22;49183;51.380;0.098;2022-09-01T18:29:04;20.40;53.50
63094;DHT22;49183;51.380;0.098;2022-09-01T18:36:31;20.10;54.20
63094;DHT22;49183;51.380;0.098;2022-09-01T18:56:44;19.10;57.60
63094;DHT22;49183;51.380;0.098;2022-09-01T19:00:13;18.90;58.20
63094;DHT22;49183;51.380;0.098;2022-09-01T19:03:31;18.80;58.70
63094;DHT22;49183;51.380;0.098;2022-09-01T19:07:30;18.70;59.20
63094;DHT22;49183;51.380;0.098;2022-09-01T19:10:33;18.50;60.00
63094;DHT22;49183;51.380;0.098;2022-09-01T19:17:29;18.30;61.20
63094;DHT22;49183;51.380;0.098;2022-09-01T19:24:00;18.00;61.70
63094;DHT22;49183;51.380;0.098;2022-09-01T19:27:14;17.90;62.10
63094;DHT22;49183;51.380;0.098;2022-09-01T19:30:14;17.80;62.40
63094;DHT22;49183;51.380;0.098;2022-09-01T19:33:20;17.80;62.60
63094;DHT22;49183;51.380;0.098;2022-09-01T19:36:53;17.70;62.70
63094;DHT22;49183;51.380;0.098;2022-09-01T19:39:55;17.70;62.90
63094;DHT22;49183;51.380;0.098;2022-09-01T19:43:07;17.60;62.90
63094;DHT22;49183;51.380;0.098;2022-09-01T19:46:22;17.60;63.00
63094;DHT22;49183;51.380;0.098;2022-09-01T19:49:58;17.50;63.00
63094;DHT22;49183;51.380;0.098;2022-09-01T19:59:18;17.40;63.30
63094;DHT22;49183;51.380;0.098;2022-09-01T20:02:31;17.40;63.40
63094;DHT22;49183;51.380;0.098;2022-09-01T20:08:56;17.20;64.30
63094;DHT22;49183;51.380;0.098;2022-09-01T20:15:29;17.10;64.30
63094;DHT22;49183;51.380;0.098;2022-09-01T20:18:41;17.10;64.30
63094;DHT22;49183;51.380;0.098;2022-09-01T20:21:46;17.10;64.10
63094;DHT22;49183;51.380;0.098;2022-09-01T20:24:47;17.10;64.10
63094;DHT22;49183;51.380;0.098;2022-09-01T20:31:38;17.10;63.80
63094;DHT22;49183;51.380;0.098;2022-09-01T20:34:53;17.10;63.70
63094;DHT22;49183;51.380;0.098;2022-09-01T20:38:02;17.10;63.20
63094;DHT22;49183;51.380;0.098;2022-09-01T20:41:34;17.20;62.90
63094;DHT22;49183;51.380;0.098;2022-09-01T20:44:48;17.20;62.70
63094;DHT22;49183;51.380;0.098;2022-09-01T20:50:59;17.30;62.60
63094;DHT22;49183;51.380;0.098;2022-09-01T21:00:47;17.30;62.90
63094;DHT22;49183;51.380;0.098;2022-09-01T21:11:01;17.30;64.60
63094;DHT22;49183;51.380;0.098;2022-09-01T21:15:05;17.30;65.00
63094;DHT22;49183;51.380;0.098;2022-09-01T21:21:04;17.20;66.00
63094;DHT22;49183;51.380;0.098;2022-09-01T21:24:06;17.20;66.80
63094;DHT22;49183;51.380;0.098;2022-09-01T21:27:14;17.20;67.40
63094;DHT22;49183;51.380;0.098;2022-09-01T21:30:17;17.20;68.20
63094;DHT22;49183;51.380;0.098;2022-09-01T21:33:23;17.10;68.60
63094;DHT22;49183;51.380;0.098;2022-09-01T21:36:25;17.10;68.80
63094;DHT22;49183;51.380;0.098;2022-09-01T21:39:29;17.10;69.80
63094;DHT22;49183;51.380;0.098;2022-09-01T21:42:50;17.10;70.10
63094;DHT22;49183;51.380;0.098;2022-09-01T21:45:58;17.10;71.00
63094;DHT22;49183;51.380;0.098;2022-09-01T21:49:09;17.10;71.30
63094;DHT22;49183;51.380;0.098;2022-09-01T21:52:34;17.00;71.90
63094;DHT22;49183;51.380;0.098;2022-09-01T21:55:35;17.00;72.60
63094;DHT22;49183;51.380;0.098;2022-09-01T21:58:37;16.90;72.90
63094;DHT22;49183;51.380;0.098;2022-09-01T22:01:39;16.80;73.20
63094;DHT22;49183;51.380;0.098;2022-09-01T22:04:40;16.80;73.90
63094;DHT22;49183;51.380;0.098;2022-09-01T22:07:44;16.80;74.80
63094;DHT22;49183;51.380;0.098;2022-09-01T22:10:54;16.70;75.10